Phoenix, Arizona
Traffic Map
Current Weather Conditions
Phoenix, Arizona
Broken Clouds
Broken Clouds
22°
Feels Like: 22°
Wind Chill: 22° Ceiling: 25000
Heat Index: 22° Visibility: 10mi
Dew Point: Wind: 10mph
Humidity: 31% Direction: 230° (SW)
Pressure: 29.62in Gusts: 0mph
Raw Report DataKPHX 280151Z 23009KT 10SM FEW110 SCT200 BKN250 22/04 A2962 RMK AO2 SLP019 T02220044
Traffic Incident Summary
Active as of:
Severity:
Category:
InformationThere was an issue retrieving the traffic information for this location. Please try a different location or try again shortly.
Advertisements
Track Severe Weather on mobile